createdAt,value
2022-10-16T00:00:52.935Z,61.76
2022-10-16T00:03:27.989Z,61.65
2022-10-16T00:06:05.102Z,61.70
2022-10-16T00:08:37.300Z,61.78
2022-10-16T00:11:12.761Z,61.79
2022-10-16T00:13:48.117Z,61.80
2022-10-16T00:16:18.414Z,61.73
2022-10-16T00:18:50.482Z,61.75
2022-10-16T00:21:25.954Z,61.82
2022-10-16T00:24:00.300Z,61.65
2022-10-16T00:26:34.555Z,61.88
2022-10-16T00:29:06.626Z,61.95
2022-10-16T00:31:38.179Z,61.91
2022-10-16T00:34:09.921Z,61.82
2022-10-16T00:36:41.161Z,62.08
2022-10-16T00:39:12.289Z,61.93
2022-10-16T00:41:43.640Z,61.91
2022-10-16T00:45:00.971Z,61.89
2022-10-16T00:47:36.629Z,61.81
2022-10-16T00:50:13.426Z,61.62
2022-10-16T00:52:48.786Z,61.76
2022-10-16T00:55:18.878Z,61.73
2022-10-16T00:57:52.067Z,61.54
2022-10-16T01:00:26.902Z,61.77
2022-10-16T01:03:02.065Z,61.73
2022-10-16T01:05:35.196Z,61.73
2022-10-16T01:08:17.252Z,61.72
2022-10-16T01:10:56.525Z,61.49
2022-10-16T01:13:36.951Z,61.51
2022-10-16T01:16:14.901Z,61.58
2022-10-16T01:18:53.826Z,61.75
2022-10-16T01:21:29.050Z,61.93
2022-10-16T01:24:08.953Z,61.96
2022-10-16T01:27:02.875Z,61.94
2022-10-16T01:29:40.468Z,61.91
2022-10-16T01:32:17.753Z,61.85
2022-10-16T01:34:55.030Z,61.83
2022-10-16T01:37:35.820Z,61.88
2022-10-16T01:40:12.382Z,61.95
2022-10-16T01:42:48.703Z,62.05
2022-10-16T01:45:22.372Z,61.96
2022-10-16T01:47:56.826Z,61.97
2022-10-16T01:50:28.885Z,62.06
2022-10-16T01:53:04.218Z,62.02
2022-10-16T01:55:35.221Z,62.07
2022-10-16T01:58:11.838Z,61.89
2022-10-16T02:00:46.585Z,62.01
2022-10-16T02:03:21.944Z,62.07
2022-10-16T02:05:57.404Z,62.25
2022-10-16T02:08:31.168Z,62.30
2022-10-16T02:11:04.241Z,62.52
2022-10-16T02:13:43.138Z,62.52
2022-10-16T02:16:16.131Z,62.47
2022-10-16T02:18:47.618Z,62.51
2022-10-16T02:21:24.972Z,62.40
2022-10-16T02:24:04.084Z,62.45
2022-10-16T02:26:44.142Z,62.37
2022-10-16T02:29:20.509Z,62.43
2022-10-16T02:31:57.502Z,62.60
2022-10-16T02:34:31.505Z,62.57
2022-10-16T02:37:06.568Z,62.73
2022-10-16T02:39:39.223Z,62.60
2022-10-16T02:42:17.744Z,62.57
2022-10-16T02:44:49.057Z,62.64
2022-10-16T02:47:20.521Z,62.63
2022-10-16T02:49:52.102Z,62.68
2022-10-16T02:52:24.051Z,62.62
2022-10-16T02:54:55.903Z,62.72
2022-10-16T02:57:28.540Z,62.86
2022-10-16T03:00:00.619Z,62.81
2022-10-16T03:02:31.899Z,62.91
2022-10-16T03:05:03.102Z,62.81
2022-10-16T03:07:34.458Z,62.89
2022-10-16T03:10:07.022Z,62.93
2022-10-16T03:12:39.803Z,62.85
2022-10-16T03:15:12.252Z,62.74
2022-10-16T03:17:44.156Z,62.74
2022-10-16T03:20:15.904Z,62.75
2022-10-16T03:22:47.367Z,62.83
2022-10-16T03:25:23.154Z,62.80
2022-10-16T03:27:54.629Z,62.76
2022-10-16T03:30:25.900Z,62.74
2022-10-16T03:32:57.277Z,62.63
2022-10-16T03:35:28.601Z,62.75
2022-10-16T03:38:00.192Z,62.70
2022-10-16T03:40:33.987Z,62.76
2022-10-16T03:43:05.490Z,62.86
2022-10-16T03:45:37.120Z,62.75
2022-10-16T03:48:08.527Z,62.72
2022-10-16T03:50:41.241Z,62.74
2022-10-16T03:53:12.448Z,62.83
2022-10-16T03:55:45.141Z,62.78
2022-10-16T03:58:16.552Z,62.82
2022-10-16T04:00:48.678Z,62.67
2022-10-16T04:03:20.310Z,62.85
2022-10-16T04:05:51.837Z,62.82
2022-10-16T04:08:23.423Z,62.73
2022-10-16T04:10:54.895Z,62.78
2022-10-16T04:13:26.193Z,62.67
2022-10-16T04:15:57.277Z,62.72
2022-10-16T04:18:29.379Z,62.86
2022-10-16T04:21:08.111Z,62.97
2022-10-16T04:23:39.303Z,63.03
2022-10-16T04:26:11.464Z,62.99
2022-10-16T04:28:43.042Z,62.99
2022-10-16T04:31:14.513Z,63.15
2022-10-16T04:33:50.171Z,63.06
2022-10-16T04:36:24.243Z,63.17
2022-10-16T04:38:58.158Z,63.37
2022-10-16T04:41:29.520Z,63.48
2022-10-16T04:44:01.074Z,63.53
2022-10-16T04:46:32.854Z,63.51
2022-10-16T04:49:04.247Z,63.48
2022-10-16T04:51:35.585Z,63.54
2022-10-16T04:54:07.132Z,63.50
2022-10-16T04:56:44.667Z,63.55
2022-10-16T04:59:16.727Z,63.60
2022-10-16T05:01:48.667Z,63.68
2022-10-16T05:04:19.805Z,63.70
2022-10-16T05:06:51.590Z,63.69
2022-10-16T05:09:23.173Z,63.89
2022-10-16T05:11:56.368Z,63.93
2022-10-16T05:14:27.696Z,63.98
2022-10-16T05:16:58.967Z,63.92
2022-10-16T05:19:30.039Z,63.93
2022-10-16T05:22:01.403Z,64.06
2022-10-16T05:24:32.859Z,64.04
2022-10-16T05:27:04.412Z,64.07
2022-10-16T05:29:36.367Z,64.04
2022-10-16T05:32:07.826Z,64.18
2022-10-16T05:34:39.007Z,64.00
2022-10-16T05:37:10.917Z,64.05
2022-10-16T05:39:42.870Z,64.08
2022-10-16T05:42:14.086Z,64.03
2022-10-16T05:44:45.242Z,63.96
2022-10-16T05:47:17.442Z,64.15
2022-10-16T05:49:48.724Z,64.63
2022-10-16T05:52:19.933Z,64.44
2022-10-16T05:54:52.109Z,64.09
2022-10-16T05:57:23.560Z,63.59
2022-10-16T05:59:54.865Z,63.03
2022-10-16T06:02:31.104Z,62.30
2022-10-16T06:05:02.419Z,62.09
2022-10-16T06:07:37.676Z,62.18
2022-10-16T06:10:09.284Z,62.04
2022-10-16T06:12:43.629Z,61.89
2022-10-16T06:15:15.114Z,61.66
2022-10-16T06:17:46.654Z,60.95
2022-10-16T06:20:18.046Z,60.16
2022-10-16T06:22:49.708Z,59.79
2022-10-16T06:25:20.699Z,58.97
2022-10-16T06:27:51.896Z,58.53
2022-10-16T06:30:23.046Z,57.60
2022-10-16T06:35:33.019Z,55.31
2022-10-16T06:38:04.576Z,55.13
2022-10-16T06:40:39.947Z,54.94
2022-10-16T06:43:11.616Z,53.94
2022-10-16T06:45:42.877Z,52.60
2022-10-16T06:48:14.276Z,51.64
2022-10-16T06:50:47.498Z,50.84
2022-10-16T06:53:19.303Z,49.90
2022-10-16T06:55:50.758Z,48.89
2022-10-16T06:58:22.511Z,48.47
2022-10-16T07:01:03.375Z,48.14
2022-10-16T07:03:35.074Z,47.12
2022-10-16T07:06:08.647Z,44.87
2022-10-16T07:08:41.627Z,43.42
2022-10-16T07:11:15.425Z,43.39
2022-10-16T07:13:51.041Z,44.05
2022-10-16T07:16:27.543Z,44.55
2022-10-16T07:19:00.755Z,45.03
2022-10-16T07:21:36.859Z,45.45
2022-10-16T07:24:13.523Z,46.09
2022-10-16T07:26:47.139Z,46.78
2022-10-16T07:29:20.840Z,47.13
2022-10-16T07:31:52.763Z,47.73
2022-10-16T07:34:24.237Z,48.60
2022-10-16T07:36:57.388Z,49.44
2022-10-16T07:39:28.799Z,50.14
2022-10-16T07:42:00.146Z,50.77
2022-10-16T07:44:32.305Z,51.77
2022-10-16T07:47:03.992Z,51.90
2022-10-16T07:49:35.073Z,52.15
2022-10-16T07:52:06.384Z,50.65
2022-10-16T07:54:37.745Z,50.18
2022-10-16T07:57:08.828Z,49.60
2022-10-16T07:59:41.234Z,48.60
2022-10-16T08:02:12.992Z,47.98
2022-10-16T08:04:44.144Z,47.91
2022-10-16T08:07:15.534Z,47.48
2022-10-16T08:09:46.696Z,46.99
2022-10-16T08:12:17.801Z,47.42
2022-10-16T08:14:49.250Z,47.46
2022-10-16T08:17:20.532Z,47.46
2022-10-16T08:19:51.820Z,47.27
2022-10-16T08:22:23.058Z,47.48
2022-10-16T08:24:54.219Z,47.82
2022-10-16T08:27:25.844Z,48.34
2022-10-16T08:29:57.480Z,48.58
2022-10-16T08:32:29.125Z,49.08
2022-10-16T08:35:00.837Z,49.12
2022-10-16T08:37:35.049Z,49.19
2022-10-16T08:40:08.414Z,49.28
2022-10-16T08:42:55.474Z,49.39
2022-10-16T08:45:42.276Z,49.36
2022-10-16T08:48:27.335Z,49.23
2022-10-16T08:50:59.451Z,49.26
2022-10-16T08:53:38.246Z,49.40
2022-10-16T08:56:11.085Z,50.06
2022-10-16T08:58:42.773Z,49.82
2022-10-16T09:01:18.076Z,49.37
2022-10-16T09:04:17.261Z,49.33
2022-10-16T09:06:52.579Z,48.85
2022-10-16T09:09:55.367Z,48.15
2022-10-16T09:12:35.375Z,48.14
2022-10-16T09:15:19.074Z,48.18
2022-10-16T09:18:01.272Z,47.89
2022-10-16T09:20:38.889Z,48.60
2022-10-16T09:23:20.195Z,48.88
2022-10-16T09:25:52.722Z,48.13
2022-10-16T09:28:24.671Z,47.64
2022-10-16T09:30:55.996Z,47.28
2022-10-16T09:33:32.314Z,47.12
2022-10-16T09:36:08.170Z,47.07
2022-10-16T09:38:40.202Z,46.75
2022-10-16T09:41:19.761Z,46.89
2022-10-16T09:43:58.168Z,47.14
2022-10-16T09:46:34.838Z,47.27
2022-10-16T09:49:20.914Z,46.98
2022-10-16T09:51:52.604Z,47.23
2022-10-16T09:54:28.130Z,47.50
2022-10-16T09:57:07.946Z,47.82
2022-10-16T09:59:50.802Z,48.01
2022-10-16T10:02:31.783Z,48.04
2022-10-16T10:05:03.430Z,48.09
2022-10-16T10:07:42.049Z,48.25
2022-10-16T10:10:24.969Z,48.56
2022-10-16T10:13:01.600Z,48.51
2022-10-16T10:15:38.712Z,48.29
2022-10-16T10:18:23.195Z,48.46
2022-10-16T10:21:06.014Z,48.30
2022-10-16T10:23:38.619Z,47.97
2022-10-16T10:26:17.728Z,47.97
2022-10-16T10:29:04.510Z,48.02
2022-10-16T10:31:42.637Z,48.03
2022-10-16T10:34:27.709Z,48.06
2022-10-16T10:37:10.227Z,48.14
2022-10-16T10:39:54.152Z,48.19
2022-10-16T10:42:31.671Z,48.03
2022-10-16T10:45:19.078Z,47.86
2022-10-16T10:48:02.619Z,47.82
2022-10-16T10:50:40.862Z,48.19
2022-10-16T10:53:27.698Z,48.23
2022-10-16T10:56:08.530Z,48.30
2022-10-16T10:59:03.364Z,48.58
2022-10-16T11:01:45.336Z,48.77
2022-10-16T11:04:44.886Z,48.60
2022-10-16T11:07:20.767Z,48.80
2022-10-16T11:09:56.813Z,49.01
2022-10-16T11:12:31.876Z,49.11
2022-10-16T11:15:12.876Z,49.30
2022-10-16T11:17:50.296Z,49.32
2022-10-16T11:20:27.694Z,49.27
2022-10-16T11:23:07.676Z,49.46
2022-10-16T11:25:41.507Z,49.18
2022-10-16T11:28:18.208Z,49.47
2022-10-16T11:30:54.979Z,49.61
2022-10-16T11:33:36.213Z,49.63
2022-10-16T11:36:16.863Z,49.47
2022-10-16T11:39:03.264Z,49.48
2022-10-16T11:41:44.027Z,49.44
2022-10-16T11:44:23.870Z,49.67
2022-10-16T11:47:28.482Z,49.73
2022-10-16T11:49:59.780Z,50.02
2022-10-16T11:52:39.503Z,50.39
2022-10-16T11:55:22.342Z,50.23
2022-10-16T11:57:57.093Z,50.47
2022-10-16T12:00:36.487Z,50.38
2022-10-16T12:03:20.286Z,50.29
2022-10-16T12:06:15.734Z,50.41
2022-10-16T12:08:47.878Z,50.54
2022-10-16T12:11:37.978Z,50.54
2022-10-16T12:14:36.901Z,50.71
2022-10-16T12:17:36.224Z,50.87
2022-10-16T12:20:26.800Z,51.16
2022-10-16T12:23:01.415Z,51.18
2022-10-16T12:25:35.243Z,51.19
2022-10-16T12:28:18.506Z,51.11
2022-10-16T12:30:57.319Z,50.95
2022-10-16T12:33:31.116Z,51.02
2022-10-16T12:36:04.808Z,50.92
2022-10-16T12:38:47.639Z,51.02
2022-10-16T12:41:29.602Z,51.26
2022-10-16T12:44:02.384Z,51.20
2022-10-16T12:46:42.073Z,51.11
2022-10-16T12:49:32.834Z,51.43
2022-10-16T12:52:04.445Z,51.25
2022-10-16T12:54:42.278Z,51.20
2022-10-16T12:57:36.888Z,51.15
2022-10-16T13:00:23.595Z,51.02
2022-10-16T13:03:19.983Z,51.09
2022-10-16T13:06:07.062Z,51.36
2022-10-16T13:09:00.268Z,51.84
2022-10-16T13:11:40.867Z,52.00
2022-10-16T13:14:54.855Z,52.05
2022-10-16T13:17:33.413Z,52.18
2022-10-16T13:20:20.171Z,52.44
2022-10-16T13:23:04.929Z,52.64
2022-10-16T13:25:56.022Z,52.70
2022-10-16T13:28:33.670Z,52.90
2022-10-16T13:31:06.056Z,53.10
2022-10-16T13:33:39.836Z,53.15
2022-10-16T13:36:23.617Z,53.26
2022-10-16T13:39:09.560Z,53.28
2022-10-16T13:41:40.947Z,53.18
2022-10-16T13:44:18.326Z,53.37
2022-10-16T13:46:59.918Z,53.29
2022-10-16T13:49:31.192Z,53.46
2022-10-16T13:52:03.313Z,53.48
2022-10-16T13:54:35.123Z,53.51
2022-10-16T13:57:26.322Z,53.64
2022-10-16T13:59:58.474Z,53.71
2022-10-16T14:02:36.361Z,53.64
2022-10-16T14:05:11.596Z,53.69
2022-10-16T14:07:41.925Z,53.69
2022-10-16T14:10:25.793Z,53.70
2022-10-16T14:13:03.218Z,53.78
2022-10-16T14:15:36.814Z,54.16
2022-10-16T14:18:08.907Z,54.14
2022-10-16T14:20:40.506Z,54.33
2022-10-16T14:23:24.407Z,54.34
2022-10-16T14:25:55.996Z,54.35
2022-10-16T14:28:27.351Z,54.18
2022-10-16T14:31:02.849Z,54.16
2022-10-16T14:33:37.739Z,54.29
2022-10-16T14:36:16.163Z,54.39
2022-10-16T14:38:57.006Z,54.30
2022-10-16T14:41:29.003Z,54.13
2022-10-16T14:44:04.038Z,54.25
2022-10-16T14:46:38.750Z,54.39
2022-10-16T14:49:20.934Z,54.48
2022-10-16T14:51:53.069Z,54.53
2022-10-16T14:54:24.432Z,54.51
2022-10-16T14:56:57.825Z,54.50
2022-10-16T14:59:36.144Z,54.62
2022-10-16T15:02:20.907Z,54.70
2022-10-16T15:04:53.105Z,54.79
2022-10-16T15:07:24.571Z,54.74
2022-10-16T15:09:58.084Z,54.76
2022-10-16T15:12:29.240Z,54.82
2022-10-16T15:15:00.444Z,54.85
2022-10-16T15:17:31.582Z,54.96
2022-10-16T15:20:05.830Z,54.96
2022-10-16T15:22:37.275Z,55.13
2022-10-16T15:25:20.433Z,55.12
2022-10-16T15:27:51.479Z,54.98
2022-10-16T15:30:22.896Z,55.06
2022-10-16T15:32:54.550Z,55.06
2022-10-16T15:35:28.312Z,55.05
2022-10-16T15:38:00.098Z,55.07
2022-10-16T15:40:32.884Z,55.24
2022-10-16T15:43:07.344Z,55.33
2022-10-16T15:45:38.703Z,55.39
2022-10-16T15:48:12.445Z,55.44
2022-10-16T15:53:24.850Z,55.61
2022-10-16T15:55:55.889Z,55.65
2022-10-16T15:58:27.739Z,55.67
2022-10-16T16:01:03.011Z,55.77
2022-10-16T16:03:34.511Z,55.63
2022-10-16T16:06:10.833Z,55.81
2022-10-16T16:08:42.520Z,55.82
2022-10-16T16:11:15.327Z,55.93
2022-10-16T16:13:47.837Z,56.05
2022-10-16T16:16:21.226Z,56.01
2022-10-16T16:18:56.574Z,56.13
2022-10-16T16:21:27.938Z,56.30
2022-10-16T16:23:59.380Z,56.29
2022-10-16T16:26:36.756Z,56.33
2022-10-16T16:29:09.014Z,56.56
2022-10-16T16:31:40.324Z,56.72
2022-10-16T16:34:12.117Z,56.70
2022-10-16T16:36:43.582Z,56.91
2022-10-16T16:39:14.943Z,56.70
2022-10-16T16:41:48.910Z,56.95
2022-10-16T16:44:22.854Z,57.02
2022-10-16T16:46:55.698Z,57.12
2022-10-16T16:49:27.084Z,57.38
2022-10-16T16:51:58.517Z,57.32
2022-10-16T16:54:31.860Z,57.52
2022-10-16T16:57:04.327Z,57.57
2022-10-16T16:59:35.465Z,57.74
2022-10-16T17:02:07.900Z,57.84
2022-10-16T17:04:39.502Z,57.94
2022-10-16T17:07:11.122Z,57.96
2022-10-16T17:09:42.204Z,57.98
2022-10-16T17:12:13.663Z,57.97
2022-10-16T17:14:46.110Z,58.09
2022-10-16T17:17:24.191Z,58.23
2022-10-16T17:19:55.822Z,58.32
2022-10-16T17:22:27.169Z,58.41
2022-10-16T17:25:04.630Z,58.49
2022-10-16T17:27:36.507Z,58.58
2022-10-16T17:30:09.888Z,58.51
2022-10-16T17:32:51.028Z,58.64
2022-10-16T17:35:22.349Z,58.89
2022-10-16T17:38:27.513Z,58.77
2022-10-16T17:40:58.664Z,59.04
2022-10-16T17:43:32.315Z,59.00
2022-10-16T17:46:07.505Z,59.16
2022-10-16T17:48:42.320Z,59.12
2022-10-16T17:51:22.342Z,59.27
2022-10-16T17:53:58.802Z,59.30
2022-10-16T17:56:32.445Z,59.46
2022-10-16T17:59:06.808Z,59.47
2022-10-16T18:01:40.666Z,59.54
2022-10-16T18:04:16.655Z,59.72
2022-10-16T18:06:48.718Z,59.70
2022-10-16T18:09:21.982Z,59.71
2022-10-16T18:11:59.965Z,59.81
2022-10-16T18:14:34.505Z,59.93
2022-10-16T18:17:07.330Z,59.95
2022-10-16T18:19:40.842Z,60.02
2022-10-16T18:22:12.112Z,60.03
2022-10-16T18:24:43.234Z,60.09
2022-10-16T18:27:14.385Z,60.18
2022-10-16T18:29:45.486Z,60.21
2022-10-16T18:32:17.658Z,60.34
2022-10-16T18:34:49.885Z,60.49
2022-10-16T18:37:21.313Z,60.56
2022-10-16T18:39:52.806Z,60.64
2022-10-16T18:42:24.262Z,60.72
2022-10-16T18:44:55.696Z,60.79
2022-10-16T18:47:27.595Z,60.88
2022-10-16T18:50:01.487Z,60.81
2022-10-16T18:52:32.853Z,60.86
2022-10-16T18:55:04.560Z,61.00
2022-10-16T18:57:36.329Z,60.96
2022-10-16T19:00:09.292Z,61.05
2022-10-16T19:02:41.565Z,61.20
2022-10-16T19:05:15.681Z,61.20
2022-10-16T19:07:49.606Z,61.21
2022-10-16T19:10:21.177Z,61.32
2022-10-16T19:12:53.677Z,61.36
2022-10-16T19:15:25.432Z,61.44
2022-10-16T19:18:04.631Z,61.45
2022-10-16T19:20:36.519Z,61.52
2022-10-16T19:23:11.017Z,61.51
2022-10-16T19:25:42.450Z,61.52
2022-10-16T19:28:17.752Z,61.63
2022-10-16T19:30:48.661Z,61.73
2022-10-16T19:33:22.203Z,61.93
2022-10-16T19:35:53.977Z,62.07
2022-10-16T19:38:25.154Z,62.08
2022-10-16T19:40:56.464Z,62.20
2022-10-16T19:43:27.601Z,62.27
2022-10-16T19:46:03.526Z,62.44
2022-10-16T19:48:34.982Z,62.52
2022-10-16T19:51:09.637Z,62.66
2022-10-16T19:53:41.632Z,62.67
2022-10-16T19:56:17.985Z,62.73
2022-10-16T19:58:49.318Z,62.85
2022-10-16T20:01:25.217Z,62.86
2022-10-16T20:03:57.207Z,62.94
2022-10-16T20:06:28.979Z,63.07
2022-10-16T20:09:00.459Z,63.18
2022-10-16T20:11:33.932Z,63.21
2022-10-16T20:14:06.541Z,63.29
2022-10-16T20:16:39.491Z,63.42
2022-10-16T20:19:11.389Z,63.43
2022-10-16T20:21:43.020Z,63.44
2022-10-16T20:24:15.715Z,63.46
2022-10-16T20:26:47.295Z,63.58
2022-10-16T20:29:18.697Z,63.57
2022-10-16T20:31:49.925Z,63.57
2022-10-16T20:34:21.021Z,63.62
2022-10-16T20:36:52.695Z,63.77
2022-10-16T20:39:23.818Z,63.77
2022-10-16T20:41:54.984Z,63.87
2022-10-16T20:44:29.086Z,63.85
2022-10-16T20:47:00.403Z,64.00
2022-10-16T20:49:44.455Z,64.07
2022-10-16T20:52:17.338Z,64.26
2022-10-16T20:54:48.777Z,64.20
2022-10-16T20:57:21.694Z,64.24
2022-10-16T20:59:55.698Z,64.36
2022-10-16T21:02:26.875Z,64.31
2022-10-16T21:05:01.027Z,64.38
2022-10-16T21:07:32.090Z,64.35
2022-10-16T21:10:03.202Z,64.34
2022-10-16T21:12:34.375Z,64.32
2022-10-16T21:15:20.721Z,64.35
2022-10-16T21:17:53.231Z,64.36
2022-10-16T21:20:24.317Z,64.29
2022-10-16T21:22:56.407Z,64.36
2022-10-16T21:25:27.728Z,64.22
2022-10-16T21:28:01.608Z,64.52
2022-10-16T21:30:32.916Z,64.49
2022-10-16T21:33:03.962Z,64.40
2022-10-16T21:35:34.986Z,64.37
2022-10-16T21:38:07.573Z,64.35
2022-10-16T21:40:39.808Z,64.42
2022-10-16T21:43:11.143Z,64.46
2022-10-16T21:45:42.174Z,64.53
2022-10-16T21:48:13.170Z,64.57
2022-10-16T21:50:50.506Z,64.71
2022-10-16T21:53:21.455Z,64.60
2022-10-16T21:55:52.456Z,64.62
2022-10-16T21:58:23.434Z,64.77
2022-10-16T22:00:54.613Z,64.71
2022-10-16T22:03:25.715Z,64.77
2022-10-16T22:05:56.714Z,64.82
2022-10-16T22:08:27.715Z,64.83
2022-10-16T22:11:05.969Z,64.84
2022-10-16T22:13:37.103Z,64.78
2022-10-16T22:16:09.606Z,64.90
2022-10-16T22:18:41.529Z,64.96
2022-10-16T22:21:12.541Z,64.94
2022-10-16T22:23:43.442Z,64.99
2022-10-16T22:26:14.890Z,64.92
2022-10-16T22:28:46.031Z,64.93
2022-10-16T22:31:17.630Z,65.02
2022-10-16T22:33:48.600Z,65.15
2022-10-16T22:36:19.896Z,65.26
2022-10-16T22:38:51.122Z,65.17
2022-10-16T22:41:23.051Z,65.18
2022-10-16T22:43:54.430Z,65.18
2022-10-16T22:46:28.929Z,65.21
2022-10-16T22:49:00.302Z,65.13
2022-10-16T22:51:31.380Z,65.28
2022-10-16T22:54:02.482Z,65.21
2022-10-16T22:56:33.423Z,65.36
2022-10-16T22:59:04.740Z,65.35
2022-10-16T23:01:39.212Z,65.40
2022-10-16T23:04:10.638Z,65.37
2022-10-16T23:06:41.607Z,65.36
2022-10-16T23:09:13.916Z,65.42
2022-10-16T23:11:44.894Z,65.58
2022-10-16T23:14:20.331Z,65.78
2022-10-16T23:16:51.758Z,65.74
2022-10-16T23:19:22.746Z,65.95
2022-10-16T23:21:53.708Z,65.96
2022-10-16T23:24:24.650Z,65.82
2022-10-16T23:26:55.704Z,65.73
2022-10-16T23:29:26.725Z,65.83
2022-10-16T23:31:58.183Z,65.79
2022-10-16T23:34:29.331Z,65.91
2022-10-16T23:37:00.320Z,65.78
2022-10-16T23:39:31.511Z,65.82
2022-10-16T23:42:02.583Z,65.93
2022-10-16T23:44:34.460Z,66.05
2022-10-16T23:47:05.457Z,66.21
2022-10-16T23:49:36.446Z,66.28
2022-10-16T23:52:08.029Z,66.37
2022-10-16T23:54:39.093Z,66.49
2022-10-16T23:57:10.039Z,66.57
2022-10-16T23:59:41.055Z,66.66
